createdAt,value
2023-04-22T00:01:58.721Z,12.25
2023-04-22T00:04:25.278Z,12.93
2023-04-22T00:06:51.752Z,12.35
2023-04-22T00:09:18.234Z,12.40
2023-04-22T00:11:44.658Z,11.88
2023-04-22T00:14:11.004Z,13.57
2023-04-22T00:16:37.940Z,11.70
2023-04-22T00:19:04.916Z,9.80
2023-04-22T00:21:31.802Z,12.45
2023-04-22T00:23:58.631Z,12.00
2023-04-22T00:26:26.252Z,11.73
2023-04-22T00:28:52.769Z,12.88
2023-04-22T00:31:20.521Z,10.02
2023-04-22T00:33:47.113Z,11.13
2023-04-22T00:36:13.605Z,11.38
2023-04-22T00:38:41.075Z,10.63
2023-04-22T00:41:08.120Z,9.20
2023-04-22T00:43:34.538Z,10.20
2023-04-22T00:46:01.354Z,9.20
2023-04-22T00:48:29.651Z,11.40
2023-04-22T00:50:56.038Z,8.73
2023-04-22T00:53:23.605Z,11.07
2023-04-22T00:55:50.561Z,10.90
2023-04-22T00:58:19.155Z,10.38
2023-04-22T01:00:46.136Z,9.13
2023-04-22T01:03:12.773Z,10.48
2023-04-22T01:05:42.882Z,10.60
2023-04-22T01:08:09.325Z,11.82
2023-04-22T01:10:35.926Z,10.07
2023-04-22T01:13:02.580Z,10.73
2023-04-22T01:15:29.364Z,9.27
2023-04-22T01:17:56.429Z,12.10
2023-04-22T01:20:22.890Z,9.63
2023-04-22T01:22:50.679Z,10.55
2023-04-22T01:25:17.617Z,11.30
2023-04-22T01:27:44.247Z,10.43
2023-04-22T01:30:11.140Z,14.10
2023-04-22T01:32:39.641Z,9.55
2023-04-22T01:35:06.606Z,11.93
2023-04-22T01:37:33.025Z,10.65
2023-04-22T01:40:00.060Z,9.32
2023-04-22T01:42:26.979Z,11.52
2023-04-22T01:44:53.640Z,9.18
2023-04-22T01:47:20.222Z,12.25
2023-04-22T01:49:46.604Z,11.02
2023-04-22T01:52:13.402Z,10.40
2023-04-22T01:54:40.559Z,11.02
2023-04-22T01:57:10.628Z,11.10
2023-04-22T01:59:37.425Z,10.60
2023-04-22T02:02:04.036Z,12.88
2023-04-22T02:04:30.447Z,11.38
2023-04-22T02:06:57.004Z,11.75
2023-04-22T02:09:23.675Z,11.57
2023-04-22T02:11:53.415Z,9.85
2023-04-22T02:14:19.817Z,10.38
2023-04-22T02:16:46.286Z,12.75
2023-04-22T02:19:13.005Z,11.98
2023-04-22T02:21:39.648Z,11.15
2023-04-22T02:24:06.266Z,11.07
2023-04-22T02:26:32.623Z,12.68
2023-04-22T02:28:59.003Z,12.57
2023-04-22T02:31:25.472Z,12.52
2023-04-22T02:33:52.068Z,10.98
2023-04-22T02:36:18.438Z,11.35
2023-04-22T02:38:44.853Z,12.20
2023-04-22T02:41:11.308Z,12.48
2023-04-22T02:43:37.702Z,12.70
2023-04-22T02:46:04.242Z,13.10
2023-04-22T02:48:30.781Z,10.52
2023-04-22T02:50:57.465Z,11.70
2023-04-22T02:53:23.863Z,11.55
2023-04-22T02:55:50.270Z,10.38
2023-04-22T02:58:16.723Z,11.07
2023-04-22T03:00:43.198Z,13.00
2023-04-22T03:03:09.860Z,12.18
2023-04-22T03:05:36.274Z,12.05
2023-04-22T03:08:02.614Z,11.20
2023-04-22T03:10:29.080Z,12.48
2023-04-22T03:12:55.474Z,13.05
2023-04-22T03:15:22.031Z,10.52
2023-04-22T03:17:48.854Z,10.93
2023-04-22T03:20:15.738Z,15.25
2023-04-22T03:22:42.073Z,9.25
2023-04-22T03:25:10.422Z,9.80
2023-04-22T03:27:36.848Z,10.65
2023-04-22T03:30:05.112Z,10.93
2023-04-22T03:32:31.564Z,10.48
2023-04-22T03:34:58.122Z,9.32
2023-04-22T03:37:24.845Z,11.95
2023-04-22T03:39:51.172Z,13.15
2023-04-22T03:42:17.626Z,9.35
2023-04-22T03:44:44.763Z,10.48
2023-04-22T03:47:11.113Z,11.07
2023-04-22T03:49:38.147Z,13.80
2023-04-22T03:52:04.817Z,11.00
2023-04-22T03:54:31.577Z,10.48
2023-04-22T03:56:57.936Z,12.43
2023-04-22T03:59:24.336Z,12.18
2023-04-22T04:01:52.141Z,11.90
2023-04-22T04:04:18.677Z,10.48
2023-04-22T04:06:45.200Z,10.32
2023-04-22T04:09:11.755Z,9.85
2023-04-22T04:11:38.154Z,9.38
2023-04-22T04:14:04.492Z,10.38
2023-04-22T04:16:30.951Z,13.25
2023-04-22T04:19:00.818Z,11.43
2023-04-22T04:21:27.290Z,10.95
2023-04-22T04:23:53.661Z,8.65
2023-04-22T04:26:20.114Z,10.45
2023-04-22T04:28:47.211Z,9.07
2023-04-22T04:31:13.620Z,9.93
2023-04-22T04:33:40.058Z,8.50
2023-04-22T04:36:06.719Z,12.05
2023-04-22T04:38:33.097Z,9.90
2023-04-22T04:40:59.615Z,15.60
2023-04-22T04:43:26.387Z,14.65
2023-04-22T04:45:53.346Z,15.95
2023-04-22T04:48:20.015Z,17.88
2023-04-22T04:50:46.503Z,10.07
2023-04-22T04:53:12.947Z,11.70
2023-04-22T04:55:39.434Z,10.75
2023-04-22T04:58:05.960Z,11.73
2023-04-22T05:00:32.684Z,10.70
2023-04-22T05:02:59.439Z,10.18
2023-04-22T05:05:25.965Z,10.93
2023-04-22T05:07:52.589Z,12.23
2023-04-22T05:10:19.492Z,10.23
2023-04-22T05:12:46.061Z,8.55
2023-04-22T05:15:12.454Z,10.75
2023-04-22T05:17:38.918Z,11.02
2023-04-22T05:20:06.206Z,11.40
2023-04-22T05:22:32.647Z,10.35
2023-04-22T05:24:59.052Z,8.70
2023-04-22T05:27:25.677Z,11.05
2023-04-22T05:29:53.779Z,13.38
2023-04-22T05:32:21.036Z,11.73
2023-04-22T05:34:47.581Z,15.82
2023-04-22T05:37:14.141Z,15.65
2023-04-22T05:39:40.810Z,12.90
2023-04-22T05:42:07.584Z,13.65
2023-04-22T05:44:34.281Z,13.05
2023-04-22T05:47:00.730Z,16.92
2023-04-22T05:49:27.458Z,18.50
2023-04-22T05:51:54.169Z,12.32
2023-04-22T05:54:25.795Z,16.98
2023-04-22T05:56:52.270Z,16.70
2023-04-22T05:59:22.572Z,12.07
2023-04-22T06:01:48.983Z,12.43
2023-04-22T06:04:18.297Z,9.70
2023-04-22T06:06:46.450Z,15.00
2023-04-22T06:09:14.440Z,14.45
2023-04-22T06:11:40.933Z,15.95
2023-04-22T06:14:07.494Z,13.90
2023-04-22T06:16:34.301Z,15.07
2023-04-22T06:19:04.080Z,9.50
2023-04-22T06:21:30.628Z,12.57
2023-04-22T06:23:56.981Z,10.52
2023-04-22T06:26:23.622Z,9.75
2023-04-22T06:28:50.085Z,7.13
2023-04-22T06:31:17.658Z,6.20
2023-04-22T06:33:46.587Z,8.52
2023-04-22T06:36:13.908Z,7.93
2023-04-22T06:38:40.472Z,7.30
2023-04-22T06:41:07.001Z,7.47
2023-04-22T06:43:33.461Z,9.13
2023-04-22T06:45:59.882Z,7.30
2023-04-22T06:48:30.589Z,6.53
2023-04-22T06:53:23.435Z,8.00
2023-04-22T06:55:52.890Z,7.53
2023-04-22T06:58:19.311Z,9.68
2023-04-22T07:00:45.842Z,7.78
2023-04-22T07:03:13.599Z,7.75
2023-04-22T07:05:40.243Z,7.22
2023-04-22T07:08:06.739Z,8.57
2023-04-22T07:10:33.668Z,7.82
2023-04-22T07:13:00.228Z,11.43
2023-04-22T07:15:27.649Z,8.02
2023-04-22T07:17:54.633Z,5.97
2023-04-22T07:20:21.135Z,7.32
2023-04-22T07:22:47.837Z,5.75
2023-04-22T07:25:14.311Z,7.43
2023-04-22T07:27:40.698Z,9.23
2023-04-22T07:30:08.624Z,9.25
2023-04-22T07:32:36.226Z,5.93
2023-04-22T07:35:03.015Z,7.60
2023-04-22T07:37:29.604Z,6.93
2023-04-22T07:40:05.422Z,5.47
2023-04-22T07:42:31.982Z,6.55
2023-04-22T07:44:58.676Z,9.18
2023-04-22T07:47:25.107Z,10.07
2023-04-22T07:49:51.584Z,6.13
2023-04-22T07:52:18.068Z,9.27
2023-04-22T07:54:44.546Z,6.10
2023-04-22T07:57:11.398Z,7.22
2023-04-22T07:59:38.115Z,6.85
2023-04-22T08:02:04.836Z,6.40
2023-04-22T08:04:31.549Z,9.68
2023-04-22T08:06:58.001Z,8.35
2023-04-22T08:09:24.451Z,6.22
2023-04-22T08:11:52.777Z,8.00
2023-04-22T08:14:19.302Z,6.93
2023-04-22T08:16:45.848Z,4.28
2023-04-22T08:19:12.447Z,4.70
2023-04-22T08:21:38.851Z,5.07
2023-04-22T08:24:06.321Z,5.75
2023-04-22T08:26:32.770Z,4.38
2023-04-22T08:28:59.154Z,7.07
2023-04-22T08:31:25.977Z,5.80
2023-04-22T08:33:52.692Z,9.88
2023-04-22T08:36:19.497Z,10.30
2023-04-22T08:38:47.316Z,5.13
2023-04-22T08:41:15.533Z,6.28
2023-04-22T08:43:42.785Z,5.78
2023-04-22T08:46:09.814Z,5.45
2023-04-22T08:48:37.016Z,5.35
2023-04-22T08:51:04.029Z,5.93
2023-04-22T08:53:31.497Z,9.75
2023-04-22T08:55:58.460Z,4.50
2023-04-22T08:58:25.519Z,6.57
2023-04-22T09:00:52.248Z,5.85
2023-04-22T09:03:19.557Z,6.20
2023-04-22T09:05:47.968Z,4.43
2023-04-22T09:08:14.721Z,5.53
2023-04-22T09:10:41.518Z,6.00
2023-04-22T09:13:07.981Z,5.38
2023-04-22T09:15:34.456Z,5.20
2023-04-22T09:18:03.358Z,4.43
2023-04-22T09:20:30.465Z,3.28
2023-04-22T09:23:01.779Z,2.83
2023-04-22T09:25:28.497Z,9.73
2023-04-22T09:27:59.292Z,3.13
2023-04-22T09:30:28.604Z,4.50
2023-04-22T09:32:57.038Z,4.45
2023-04-22T09:35:31.535Z,6.22
2023-04-22T09:37:59.984Z,1.75
2023-04-22T09:40:27.507Z,2.03
2023-04-22T09:42:56.531Z,3.22
2023-04-22T09:45:37.577Z,5.55
2023-04-22T09:48:08.599Z,2.42
2023-04-22T09:50:35.686Z,3.40
2023-04-22T09:53:05.182Z,3.10
2023-04-22T09:55:37.320Z,3.45
2023-04-22T09:58:12.120Z,3.05
2023-04-22T10:00:46.028Z,3.20
2023-04-22T10:03:12.909Z,2.78
2023-04-22T10:05:39.576Z,2.42
2023-04-22T10:08:07.415Z,3.30
2023-04-22T10:10:34.417Z,2.83
2023-04-22T10:13:01.842Z,3.00
2023-04-22T10:15:34.608Z,2.63
2023-04-22T10:18:02.971Z,3.83
2023-04-22T10:20:31.602Z,2.28
2023-04-22T10:22:58.335Z,2.20
2023-04-22T10:25:26.187Z,2.45
2023-04-22T10:28:03.191Z,3.65
2023-04-22T10:30:32.313Z,2.38
2023-04-22T10:33:23.253Z,2.70
2023-04-22T10:36:09.927Z,3.42
2023-04-22T10:38:36.474Z,2.53
2023-04-22T10:41:02.936Z,2.03
2023-04-22T10:43:48.931Z,2.83
2023-04-22T10:46:41.385Z,3.15
2023-04-22T10:49:10.360Z,2.30
2023-04-22T10:51:43.054Z,2.40
2023-04-22T10:54:31.996Z,3.22
2023-04-22T10:57:04.890Z,3.15
2023-04-22T10:59:33.156Z,2.03
2023-04-22T11:02:06.651Z,1.85
2023-04-22T11:04:33.759Z,1.80
2023-04-22T11:07:18.661Z,4.00
2023-04-22T11:10:06.035Z,2.63
2023-04-22T11:12:35.206Z,2.67
2023-04-22T11:15:05.593Z,3.03
2023-04-22T11:19:58.916Z,1.67
2023-04-22T11:22:25.477Z,2.20
2023-04-22T11:24:58.721Z,1.67
2023-04-22T11:27:25.580Z,3.60
2023-04-22T11:30:07.523Z,3.83
2023-04-22T11:32:37.847Z,3.10
2023-04-22T11:37:43.674Z,1.38
2023-04-22T11:42:41.664Z,2.72
2023-04-22T11:45:08.804Z,5.00
2023-04-22T11:47:36.088Z,2.55
2023-04-22T11:50:05.895Z,3.40
2023-04-22T11:52:57.975Z,2.53
2023-04-22T11:55:32.401Z,2.97
2023-04-22T11:58:10.407Z,2.55
2023-04-22T12:00:48.646Z,3.58
2023-04-22T12:03:29.732Z,4.60
2023-04-22T12:05:59.186Z,2.05
2023-04-22T12:08:37.230Z,2.67
2023-04-22T12:11:08.493Z,2.72
2023-04-22T12:13:37.871Z,2.13
2023-04-22T12:16:09.654Z,3.43
2023-04-22T12:18:38.860Z,3.10
2023-04-22T12:21:10.262Z,3.30
2023-04-22T12:23:48.873Z,1.60
2023-04-22T12:26:17.529Z,2.50
2023-04-22T12:28:45.078Z,2.83
2023-04-22T12:31:13.068Z,3.08
2023-04-22T12:33:39.798Z,1.95
2023-04-22T12:36:07.208Z,1.88
2023-04-22T12:38:34.724Z,4.55
2023-04-22T12:41:02.353Z,2.47
2023-04-22T12:43:28.701Z,5.18
2023-04-22T12:45:55.151Z,3.17
2023-04-22T12:48:21.516Z,3.53
2023-04-22T12:50:47.976Z,2.97
2023-04-22T12:53:15.051Z,3.08
2023-04-22T12:55:42.478Z,4.82
2023-04-22T12:58:09.924Z,2.22
2023-04-22T13:00:36.326Z,3.88
2023-04-22T13:03:03.546Z,1.63
2023-04-22T13:05:30.134Z,3.30
2023-04-22T13:08:06.376Z,3.70
2023-04-22T13:10:33.904Z,2.50
2023-04-22T13:13:10.283Z,2.30
2023-04-22T13:15:43.965Z,2.80
2023-04-22T13:18:10.427Z,3.50
2023-04-22T13:20:36.932Z,4.60
2023-04-22T13:23:03.462Z,4.13
2023-04-22T13:25:30.188Z,3.20
2023-04-22T13:27:56.581Z,4.28
2023-04-22T13:30:23.129Z,2.97
2023-04-22T13:32:49.863Z,4.57
2023-04-22T13:35:16.302Z,3.10
2023-04-22T13:37:42.810Z,4.43
2023-04-22T13:40:09.610Z,2.75
2023-04-22T13:42:36.109Z,1.98
2023-04-22T13:45:15.905Z,3.03
2023-04-22T13:47:45.753Z,3.38
2023-04-22T13:50:13.823Z,1.80
2023-04-22T13:52:41.422Z,4.15
2023-04-22T13:55:14.804Z,2.45
2023-04-22T13:57:41.230Z,4.30
2023-04-22T14:00:10.093Z,4.85
2023-04-22T14:02:36.898Z,3.97
2023-04-22T14:05:03.453Z,1.83
2023-04-22T14:07:31.352Z,3.95
2023-04-22T14:09:57.787Z,1.92
2023-04-22T14:12:24.663Z,4.10
2023-04-22T14:14:51.079Z,3.67
2023-04-22T14:17:17.532Z,3.70
2023-04-22T14:19:44.336Z,2.20
2023-04-22T14:22:10.733Z,2.92
2023-04-22T14:24:37.220Z,4.13
2023-04-22T14:27:03.896Z,5.03
2023-04-22T14:29:30.619Z,3.17
2023-04-22T14:31:58.194Z,2.85
2023-04-22T14:34:24.861Z,3.55
2023-04-22T14:36:51.194Z,4.80
2023-04-22T14:39:17.572Z,4.90
2023-04-22T14:41:44.262Z,5.10
2023-04-22T14:44:10.703Z,3.90
2023-04-22T14:46:37.214Z,3.05
2023-04-22T14:49:03.790Z,3.28
2023-04-22T14:51:30.667Z,4.60
2023-04-22T14:53:57.421Z,3.13
2023-04-22T14:56:23.925Z,3.45
2023-04-22T14:58:50.342Z,1.92
2023-04-22T15:01:17.225Z,3.40
2023-04-22T15:03:44.103Z,4.03
2023-04-22T15:06:11.638Z,2.85
2023-04-22T15:08:38.123Z,2.25
2023-04-22T15:11:04.573Z,6.65
2023-04-22T15:13:31.255Z,4.53
2023-04-22T15:15:57.706Z,3.08
2023-04-22T15:18:24.159Z,3.05
2023-04-22T15:20:50.549Z,3.17
2023-04-22T15:23:17.311Z,2.65
2023-04-22T15:25:43.764Z,5.43
2023-04-22T15:28:10.688Z,5.03
2023-04-22T15:30:37.155Z,3.75
2023-04-22T15:33:05.508Z,2.55
2023-04-22T15:35:32.945Z,2.83
2023-04-22T15:37:59.317Z,3.95
2023-04-22T15:40:25.824Z,2.92
2023-04-22T15:42:52.806Z,4.57
2023-04-22T15:45:20.438Z,3.95
2023-04-22T15:47:47.691Z,2.47
2023-04-22T15:50:14.518Z,6.20
2023-04-22T15:52:41.502Z,4.63
2023-04-22T15:55:08.509Z,2.20
2023-04-22T15:57:35.545Z,3.33
2023-04-22T16:00:10.780Z,2.40
2023-04-22T16:02:40.196Z,2.90
2023-04-22T16:05:07.104Z,5.35
2023-04-22T16:07:33.626Z,4.50
2023-04-22T16:10:00.065Z,3.10
2023-04-22T16:12:26.574Z,3.00
2023-04-22T16:14:53.287Z,3.85
2023-04-22T16:17:20.026Z,3.67
2023-04-22T16:19:46.666Z,3.05
2023-04-22T16:22:13.241Z,4.50
2023-04-22T16:24:41.123Z,4.82
2023-04-22T16:27:09.721Z,4.78
2023-04-22T16:29:36.429Z,2.95
2023-04-22T16:32:03.083Z,3.17
2023-04-22T16:34:32.261Z,2.88
2023-04-22T16:36:59.274Z,3.67
2023-04-22T16:39:25.768Z,3.97
2023-04-22T16:41:58.198Z,3.40
2023-04-22T16:44:24.976Z,2.80
2023-04-22T16:46:52.211Z,5.22
2023-04-22T16:49:18.819Z,4.70
2023-04-22T16:51:45.249Z,5.72
2023-04-22T16:54:11.576Z,2.80
2023-04-22T16:56:38.008Z,3.70
2023-04-22T16:59:04.407Z,3.25
2023-04-22T17:01:31.338Z,5.15
2023-04-22T17:03:58.494Z,4.07
2023-04-22T17:06:25.443Z,3.85
2023-04-22T17:08:51.936Z,2.10
2023-04-22T17:11:18.394Z,6.28
2023-04-22T17:13:46.522Z,6.32
2023-04-22T17:16:13.185Z,5.75
2023-04-22T17:18:40.060Z,5.68
2023-04-22T17:21:06.837Z,4.18
2023-04-22T17:23:33.299Z,5.25
2023-04-22T17:25:59.672Z,5.45
2023-04-22T17:28:26.346Z,3.67
2023-04-22T17:30:53.567Z,4.63
2023-04-22T17:33:20.002Z,2.97
2023-04-22T17:35:47.709Z,7.30
2023-04-22T17:38:14.122Z,4.38
2023-04-22T17:40:40.761Z,4.88
2023-04-22T17:43:07.293Z,4.47
2023-04-22T17:45:34.178Z,5.43
2023-04-22T17:48:00.866Z,2.72
2023-04-22T17:50:36.875Z,3.53
2023-04-22T17:53:03.909Z,4.22
2023-04-22T17:55:30.745Z,5.80
2023-04-22T17:57:57.217Z,5.05
2023-04-22T18:00:24.336Z,7.53
2023-04-22T18:02:52.889Z,2.70
2023-04-22T18:05:20.626Z,6.82
2023-04-22T18:07:47.274Z,4.85
2023-04-22T18:10:13.909Z,3.55
2023-04-22T18:12:40.917Z,6.07
2023-04-22T18:15:08.172Z,2.90
2023-04-22T18:17:34.591Z,4.97
2023-04-22T18:20:13.941Z,6.53
2023-04-22T18:22:44.649Z,4.95
2023-04-22T18:25:11.142Z,8.02
2023-04-22T18:27:37.847Z,6.43
2023-04-22T18:30:05.982Z,3.47
2023-04-22T18:32:36.664Z,4.13
2023-04-22T18:35:03.501Z,3.38
2023-04-22T18:37:30.087Z,3.63
2023-04-22T18:39:57.087Z,4.03
2023-04-22T18:42:23.957Z,8.43
2023-04-22T18:44:58.028Z,2.63
2023-04-22T18:47:24.495Z,5.22
2023-04-22T18:49:50.978Z,6.25
2023-04-22T18:52:18.558Z,2.90
2023-04-22T18:54:45.150Z,4.07
2023-04-22T18:57:11.638Z,4.07
2023-04-22T18:59:38.531Z,4.53
2023-04-22T19:02:05.588Z,4.00
2023-04-22T19:04:32.116Z,2.00
2023-04-22T19:06:58.522Z,3.70
2023-04-22T19:09:24.974Z,3.75
2023-04-22T19:11:52.915Z,3.15
2023-04-22T19:14:19.320Z,4.35
2023-04-22T19:16:45.873Z,6.03
2023-04-22T19:19:12.612Z,3.67
2023-04-22T19:21:39.866Z,3.05
2023-04-22T19:24:06.601Z,5.43
2023-04-22T19:26:33.447Z,5.65
2023-04-22T19:28:59.857Z,3.95
2023-04-22T19:31:31.469Z,5.10
2023-04-22T19:33:58.095Z,3.05
2023-04-22T19:36:24.541Z,4.07
2023-04-22T19:38:54.489Z,5.65
2023-04-22T19:41:22.006Z,5.97
2023-04-22T19:43:49.219Z,4.22
2023-04-22T19:46:15.597Z,3.97
2023-04-22T19:48:42.257Z,3.53
2023-04-22T19:51:08.936Z,6.28
2023-04-22T19:53:35.946Z,4.35
2023-04-22T19:56:03.057Z,3.55
2023-04-22T19:58:30.479Z,4.82
2023-04-22T20:00:57.168Z,3.78
2023-04-22T20:03:24.388Z,4.32
2023-04-22T20:05:51.517Z,4.68
2023-04-22T20:08:25.812Z,3.63
2023-04-22T20:10:52.752Z,3.13
2023-04-22T20:13:19.559Z,2.90
2023-04-22T20:15:46.288Z,3.80
2023-04-22T20:18:13.114Z,5.35
2023-04-22T20:20:43.445Z,6.00
2023-04-22T20:23:10.232Z,4.40
2023-04-22T20:25:44.186Z,4.60
2023-04-22T20:28:12.457Z,4.45
2023-04-22T20:30:39.606Z,4.55
2023-04-22T20:33:06.414Z,3.40
2023-04-22T20:35:33.252Z,4.00
2023-04-22T20:38:01.259Z,7.05
2023-04-22T20:40:29.526Z,5.00
2023-04-22T20:42:58.008Z,6.55
2023-04-22T20:45:24.526Z,7.00
2023-04-22T20:47:50.983Z,9.13
2023-04-22T20:50:17.590Z,5.90
2023-04-22T20:52:44.272Z,9.13
2023-04-22T20:55:10.790Z,7.80
2023-04-22T20:57:37.397Z,7.35
2023-04-22T21:00:05.068Z,7.03
2023-04-22T21:02:34.584Z,8.27
2023-04-22T21:05:01.149Z,7.05
2023-04-22T21:07:29.651Z,5.22
2023-04-22T21:09:57.064Z,6.35
2023-04-22T21:12:24.197Z,7.03
2023-04-22T21:14:51.032Z,8.57
2023-04-22T21:17:30.901Z,7.80
2023-04-22T21:19:58.439Z,7.13
2023-04-22T21:22:25.726Z,6.05
2023-04-22T21:24:56.159Z,6.70
2023-04-22T21:27:22.711Z,6.65
2023-04-22T21:29:49.922Z,7.38
2023-04-22T21:32:17.197Z,8.27
2023-04-22T21:34:45.427Z,8.68
2023-04-22T21:37:12.729Z,6.90
2023-04-22T21:39:40.358Z,7.28
2023-04-22T21:42:06.913Z,11.57
2023-04-22T21:44:37.342Z,14.52
2023-04-22T21:49:30.574Z,6.78
2023-04-22T21:51:59.769Z,5.30
2023-04-22T21:54:26.190Z,6.63
2023-04-22T21:56:53.056Z,7.10
2023-04-22T21:59:19.429Z,7.65
2023-04-22T22:01:46.273Z,9.27
2023-04-22T22:04:15.762Z,6.70
2023-04-22T22:06:42.826Z,5.53
2023-04-22T22:09:09.229Z,7.28
2023-04-22T22:11:35.631Z,8.82
2023-04-22T22:14:01.991Z,9.30
2023-04-22T22:16:28.676Z,8.65
2023-04-22T22:18:55.139Z,7.35
2023-04-22T22:21:21.753Z,7.05
2023-04-22T22:23:48.232Z,7.53
2023-04-22T22:26:14.742Z,8.88
2023-04-22T22:28:41.424Z,8.50
2023-04-22T22:31:08.030Z,8.77
2023-04-22T22:33:34.734Z,8.45
2023-04-22T22:36:01.590Z,7.55
2023-04-22T22:38:27.990Z,8.85
2023-04-22T22:40:54.498Z,9.52
2023-04-22T22:43:20.962Z,9.80
2023-04-22T22:45:47.642Z,8.52
2023-04-22T22:48:14.399Z,8.70
2023-04-22T22:50:41.025Z,8.90
2023-04-22T22:53:09.542Z,7.47
2023-04-22T22:55:36.091Z,8.95
2023-04-22T22:58:02.747Z,11.23
2023-04-22T23:00:29.257Z,8.38
2023-04-22T23:02:55.918Z,9.02
2023-04-22T23:05:22.374Z,7.38
2023-04-22T23:07:48.760Z,6.70
2023-04-22T23:10:15.134Z,12.57
2023-04-22T23:12:41.470Z,9.02
2023-04-22T23:15:08.262Z,9.00
2023-04-22T23:17:35.391Z,8.57
2023-04-22T23:20:03.668Z,7.10
2023-04-22T23:22:30.726Z,9.40
2023-04-22T23:24:57.588Z,7.38
2023-04-22T23:27:24.559Z,7.25
2023-04-22T23:29:51.326Z,7.70
2023-04-22T23:32:19.859Z,8.07
2023-04-22T23:34:49.825Z,6.35
2023-04-22T23:37:18.718Z,7.00
2023-04-22T23:39:45.344Z,7.63
2023-04-22T23:42:12.153Z,6.20
2023-04-22T23:44:38.904Z,7.35
2023-04-22T23:47:05.802Z,6.65
2023-04-22T23:49:32.351Z,8.10
2023-04-22T23:51:58.777Z,8.65
2023-04-22T23:54:25.455Z,9.85
2023-04-22T23:56:52.566Z,6.07
2023-04-22T23:59:19.124Z,7.93
